Date,TemperatureHighF,TemperatureAvgF,TemperatureLowF,DewpointHighF,DewpointAvgF,DewpointLowF,HumidityHigh,HumidityAvg,HumidityLow,PressureMaxIn,PressureMinIn,WindSpeedMaxMPH,WindSpeedAvgMPH,GustSpeedMaxMPH,PrecipitationSumIn
2013-4-1,50,41,32,46,33,17,95,76,42,29.88,29.56,30,4,32,0.14
2013-4-2,38,32,26,26,21,15,87,66,43,30.03,29.87,26,5,32,0.01
2013-4-3,41,33,27,24,20,16,77,58,35,30.28,30.00,27,5,30,0.00
2013-4-4,55,41,27,28,24,19,82,53,30,30.35,29.96,13,2,17,0.00
2013-4-5,54,44,33,32,27,21,80,54,33,30.00,29.77,23,3,24,0.00
2013-4-6,49,37,29,30,15,9,78,43,23,30.30,29.99,15,2,18,0.00
2013-4-7,61,45,28,41,30,18,80,59,30,30.25,29.85,31,3,31,0.01
2013-4-8,63,50,41,44,38,34,85,64,39,30.14,29.92,12,1,16,0.00
2013-4-9,60,54,50,50,45,42,83,71,56,30.04,29.81,19,3,22,0.03
2013-4-10,60,50,46,54,47,44,95,89,71,30.00,29.83,11,1,13,0.84
2013-4-11,46,40,33,44,32,24,93,75,50,30.15,29.89,13,2,17,0.05
2013-4-12,40,36,33,37,34,28,100,91,79,30.13,29.78,7,0,12,0.56
2013-4-13,51,43,37,43,38,36,95,85,65,29.94,29.81,17,0,22,0.00
2013-4-14,48,42,32,38,33,27,93,74,48,30.25,29.94,20,2,21,0.05
2013-4-15,62,45,28,40,33,26,92,65,41,30.37,30.22,15,1,17,0.00
2013-4-16,59,54,47,55,44,33,90,72,55,30.30,30.00,21,3,23,0.27
2013-4-17,66,54,42,44,38,33,80,58,32,30.32,30.13,15,3,17,0.00
2013-4-18,66,52,35,48,38,31,90,63,38,30.34,30.01,24,3,25,0.00
2013-4-19,71,62,45,62,56,42,92,82,72,30.01,29.49,28,4,28,0.68
2013-4-20,53,45,36,42,35,23,93,71,44,30.33,29.73,22,3,24,0.20
2013-4-21,53,40,30,29,24,21,75,54,32,30.66,30.33,13,2,20,0.00
2013-4-22,60,45,30,32,28,24,84,55,27,30.71,30.49,14,1,14,0.00
2013-4-23,55,44,30,42,34,26,90,70,58,30.53,30.13,7,0,10,0.00
2013-4-24,73,54,32,52,43,30,94,70,45,30.13,29.67,19,2,20,0.00
2013-4-25,61,48,39,52,35,30,80,61,35,30.26,29.76,23,3,24,0.02
2013-4-26,59,46,33,40,34,30,93,65,35,30.45,30.25,16,2,18,0.00
2013-4-27,66,49,32,42,34,27,92,60,25,30.45,30.27,9,1,11,0.00
2013-4-28,75,57,36,47,39,34,93,58,28,30.31,30.08,13,1,17,0.00
2013-4-29,61,56,52,49,43,33,88,62,43,30.22,30.16,12,1,14,0.02
2013-4-30,74,60,48,52,45,35,92,62,31,30.29,30.20,11,1,13,0.01